Budapest, Hungary

12:13 PM CEST on August 04, 2015 (GMT +0200)
IBUDAPES30 | | Change Station
CLOSE
Current Station
Personal Weather Station
Location: Budapest, XXII. ker.
Elevation: 453 ft
Nearby Weather Stations

Elev 453 ft 47.41 °N, 19.00 °E | Updated 13 minutes ago

Scattered Clouds
Scattered Clouds
--
Feels Like --
N
3.1
Wind Variable Wind from SW
Gusts 4.5 mph

5:25 AM 8:14 PM
Waning Gibbous, 79% visible
Pressure 30.04 in
Visibility 6.2 miles
Clouds Scattered Clouds 4500 ft
Dew Point Not available.
Humidity Not available.
Rainfall 0.00 in
Snow Depth Not available.
UV 7 out of 12
Pollen Not available.
Air Quality Not available.
Flu Activity Not available.
METAR LHBP 041000Z 20006KT 140V270 9999 SCT045 30/17 Q1017 NOSIG

More Conditions Fewer Conditions

Pressure 30.04 in
Visibility 6.2 miles
Clouds Scattered Clouds 4500 ft
Dew Point Not available.
Humidity Not available.
Rainfall 0.00 in
Snow Depth Not available.
UV 7 out of 12
Pollen Not available.
Air Quality Not available.
Flu Activity Not available.
METAR LHBP 041000Z 20006KT 140V270 9999 SCT045 30/17 Q1017 NOSIG

More Conditions Fewer Conditions

10-Day Weather Forecast

×

Almanac

Astronomy

Aug. 04, 2015 Rise Set
Actual Time
Civil Twilight
Nautical Twilight
Astronomical Twilight
Moon
Length of Visible Light
Length of Day
Tomorrow will be .
, % of the Moon is Illuminated

Today's Extremes

Country Highs Country Lows

Community

WunderPhotos

Upload Photos

1,843,883 photos uploaded!

WunderBlogs® & News

Nearby

Air Quality

  Air Quality AQ Index Pollutant
Not available.

Snow Depth

Station Depth Elevation

Earthquake Activity

City Distance Mag. Time & Date
Minimum magnitude displayed is 2.5.

Coastal Water Temperatures

Place Temperature

Stations

Nearby Weather Stations

Station Location Temp. Windchill Dew Point Humidity Wind Precip. Elev Updated Type